UPS2661 KCLT-KSDF
Flight info
| Callsign | UPS2661 |
|---|---|
| Flight time | 1h 14m |
| Altitude | 38000 |
| Route | JOJJO5 CUBIM LAFOX LEDDL1 |
| Aircraft | MD11/H-SDE1E2E3FGHIJ2J3J4J5M1RWXY/LB1D1 |
Departure
| Time | 2026-05-03 22:55 |
|---|---|
| Airport | Charlotte Douglas International Airport (KCLT) |
Arrival
| Time | 2026-05-04 00:10 |
|---|---|
| Airport | Louisville Muhammad Ali International Airport (KSDF) |
| Time | Latitude | Longitude | Altitude | Speed | Heading |
|---|---|---|---|---|---|
| 2026-05-03 22:12 | 35.21169 | -80.94121 | 741 ft | 0 kts | 229° |
| 2026-05-03 22:39 | 35.21182 | -80.94103 | 740 ft | 3 kts | 229° |
| 2026-05-03 22:39 | 35.21189 | -80.94092 | 741 ft | 3 kts | 231° |
| 2026-05-03 22:39 | 35.21200 | -80.94070 | 740 ft | 3 kts | 285° |
| 2026-05-03 22:39 | 35.21198 | -80.94063 | 740 ft | 2 kts | 319° |
| 2026-05-03 22:40 | 35.21206 | -80.94076 | 741 ft | 3 kts | 296° |
| 2026-05-03 22:40 | 35.21201 | -80.94076 | 740 ft | 3 kts | 237° |
| 2026-05-03 22:40 | 35.21198 | -80.94080 | 740 ft | 1 kts | 229° |
| 2026-05-03 22:40 | 35.21204 | -80.94075 | 741 ft | 3 kts | 276° |
| 2026-05-03 22:41 | 35.21199 | -80.94065 | 740 ft | 3 kts | 319° |
| 2026-05-03 22:41 | 35.21182 | -80.94047 | 740 ft | 3 kts | 321° |
| 2026-05-03 22:41 | 35.21173 | -80.94038 | 741 ft | 0 kts | 321° |
| 2026-05-03 22:47 | 35.21174 | -80.94038 | 741 ft | 0 kts | 321° |
| 2026-05-03 22:47 | 35.21186 | -80.94050 | 741 ft | 4 kts | 321° |
| 2026-05-03 22:47 | 35.21216 | -80.94080 | 740 ft | 7 kts | 321° |
| 2026-05-03 22:48 | 35.21230 | -80.94094 | 743 ft | 0 kts | 320° |
| 2026-05-03 22:49 | 35.21234 | -80.94098 | 743 ft | 3 kts | 319° |
| 2026-05-03 22:49 | 35.21266 | -80.94137 | 741 ft | 10 kts | 310° |
| 2026-05-03 22:49 | 35.21279 | -80.94239 | 741 ft | 15 kts | 257° |
| 2026-05-03 22:49 | 35.21216 | -80.94352 | 738 ft | 18 kts | 229° |
| 2026-05-03 22:50 | 35.21128 | -80.94472 | 736 ft | 20 kts | 225° |
| 2026-05-03 22:50 | 35.21037 | -80.94600 | 732 ft | 21 kts | 230° |
| 2026-05-03 22:50 | 35.20936 | -80.94739 | 731 ft | 23 kts | 227° |
| 2026-05-03 22:50 | 35.20829 | -80.94885 | 727 ft | 22 kts | 228° |
| 2026-05-03 22:51 | 35.20731 | -80.94943 | 726 ft | 16 kts | 176° |
| 2026-05-03 22:51 | 35.20613 | -80.94934 | 725 ft | 18 kts | 178° |
| 2026-05-03 22:51 | 35.20479 | -80.94924 | 725 ft | 21 kts | 176° |
| 2026-05-03 22:51 | 35.20330 | -80.94911 | 721 ft | 23 kts | 175° |
| 2026-05-03 22:52 | 35.20163 | -80.94896 | 718 ft | 23 kts | 176° |
| 2026-05-03 22:52 | 35.20064 | -80.94891 | 717 ft | 5 kts | 187° |
| 2026-05-03 22:52 | 35.20047 | -80.94896 | 717 ft | 3 kts | 197° |
| 2026-05-03 22:52 | 35.20040 | -80.94899 | 716 ft | 0 kts | 200° |
| 2026-05-03 22:53 | 35.20037 | -80.94903 | 713 ft | 1 kts | 220° |
| 2026-05-03 22:53 | 35.20027 | -80.94934 | 716 ft | 6 kts | 254° |
| 2026-05-03 22:53 | 35.20026 | -80.94945 | 715 ft | 1 kts | 259° |
| 2026-05-03 22:53 | 35.20023 | -80.94970 | 715 ft | 5 kts | 263° |
| 2026-05-03 22:54 | 35.20024 | -80.95029 | 714 ft | 9 kts | 283° |
| 2026-05-03 22:54 | 35.20065 | -80.95081 | 716 ft | 9 kts | 340° |
| 2026-05-03 22:54 | 35.20134 | -80.95091 | 716 ft | 23 kts | 357° |
| 2026-05-03 22:54 | 35.20582 | -80.95131 | 726 ft | 104 kts | 356° |
| 2026-05-03 22:55 | 35.21534 | -80.95215 | 736 ft | 167 kts | 356° |
| 2026-05-03 22:55 | 35.22832 | -80.95335 | 984 ft | 200 kts | 354° |
| 2026-05-03 22:55 | 35.24321 | -80.95459 | 1570 ft | 222 kts | 356° |
| 2026-05-03 22:55 | 35.25760 | -80.95563 | 2018 ft | 203 kts | 355° |
| 2026-05-03 22:56 | 35.27178 | -80.95731 | 2277 ft | 210 kts | 354° |
| 2026-05-03 22:56 | 35.28616 | -80.95952 | 2199 ft | 206 kts | 352° |
| 2026-05-03 22:56 | 35.30013 | -80.96186 | 2617 ft | 202 kts | 352° |
| 2026-05-03 22:56 | 35.31421 | -80.96426 | 3154 ft | 211 kts | 352° |
| 2026-05-03 22:57 | 35.32944 | -80.96687 | 3710 ft | 225 kts | 351° |
| 2026-05-03 22:57 | 35.34497 | -80.96948 | 4238 ft | 225 kts | 351° |
| 2026-05-03 22:57 | 35.36044 | -80.97192 | 4763 ft | 223 kts | 351° |
| 2026-05-03 22:57 | 35.37579 | -80.97414 | 5288 ft | 222 kts | 352° |
| 2026-05-03 22:58 | 35.39115 | -80.97625 | 5810 ft | 222 kts | 351° |
| 2026-05-03 22:58 | 35.40656 | -80.97831 | 6350 ft | 223 kts | 351° |
| 2026-05-03 22:58 | 35.42206 | -80.98027 | 6841 ft | 225 kts | 351° |
| 2026-05-03 22:58 | 35.43778 | -80.98212 | 7339 ft | 229 kts | 351° |
| 2026-05-03 22:59 | 35.45381 | -80.98375 | 7840 ft | 233 kts | 351° |
| 2026-05-03 22:59 | 35.47036 | -80.98533 | 8050 ft | 245 kts | 352° |
| 2026-05-03 22:59 | 35.48719 | -80.98688 | 8020 ft | 240 kts | 352° |
| 2026-05-03 22:59 | 35.50361 | -80.98834 | 8006 ft | 235 kts | 352° |
| 2026-05-03 23:00 | 35.51997 | -80.98976 | 8001 ft | 236 kts | 352° |
| 2026-05-03 23:00 | 35.53617 | -80.99120 | 7999 ft | 235 kts | 351° |
| 2026-05-03 23:00 | 35.55126 | -80.99716 | 8011 ft | 227 kts | 320° |
| 2026-05-03 23:00 | 35.55970 | -81.01266 | 8396 ft | 221 kts | 287° |
| 2026-05-03 23:01 | 35.56381 | -81.03115 | 8928 ft | 226 kts | 288° |
| 2026-05-03 23:01 | 35.56885 | -81.04980 | 9471 ft | 236 kts | 289° |
| 2026-05-03 23:01 | 35.57486 | -81.06915 | 10017 ft | 249 kts | 292° |
| 2026-05-03 23:01 | 35.58227 | -81.08918 | 10514 ft | 264 kts | 294° |
| 2026-05-03 23:02 | 35.59089 | -81.11025 | 10792 ft | 295 kts | 296° |
| 2026-05-03 23:02 | 35.60131 | -81.13371 | 11075 ft | 327 kts | 297° |
| 2026-05-03 23:02 | 35.61313 | -81.15882 | 11617 ft | 348 kts | 298° |
| 2026-05-03 23:02 | 35.62570 | -81.18461 | 12147 ft | 354 kts | 298° |
| 2026-05-03 23:03 | 35.63861 | -81.21059 | 12668 ft | 357 kts | 298° |
| 2026-05-03 23:03 | 35.65157 | -81.23635 | 13180 ft | 359 kts | 298° |
| 2026-05-03 23:03 | 35.66498 | -81.26290 | 13714 ft | 362 kts | 297° |
| 2026-05-03 23:03 | 35.67822 | -81.28896 | 14195 ft | 367 kts | 297° |
| 2026-05-03 23:04 | 35.69203 | -81.31639 | 14682 ft | 385 kts | 297° |
| 2026-05-03 23:04 | 35.70622 | -81.34452 | 15169 ft | 388 kts | 297° |
| 2026-05-03 23:04 | 35.72060 | -81.37281 | 15681 ft | 392 kts | 297° |
| 2026-05-03 23:04 | 35.73508 | -81.40143 | 16181 ft | 394 kts | 297° |
| 2026-05-03 23:05 | 35.74959 | -81.43001 | 16687 ft | 395 kts | 297° |
| 2026-05-03 23:05 | 35.76418 | -81.45883 | 17217 ft | 397 kts | 297° |
| 2026-05-03 23:05 | 35.77889 | -81.48781 | 17749 ft | 399 kts | 297° |
| 2026-05-03 23:05 | 35.79363 | -81.51687 | 18308 ft | 401 kts | 297° |
| 2026-05-03 23:06 | 35.80842 | -81.54622 | 18788 ft | 403 kts | 296° |
| 2026-05-03 23:06 | 35.82327 | -81.57553 | 19258 ft | 404 kts | 296° |
| 2026-05-03 23:06 | 35.83819 | -81.60498 | 19748 ft | 405 kts | 295° |
| 2026-05-03 23:06 | 35.85291 | -81.63416 | 20233 ft | 408 kts | 295° |
| 2026-05-03 23:07 | 35.86796 | -81.66393 | 20735 ft | 410 kts | 295° |
| 2026-05-03 23:07 | 35.88306 | -81.69390 | 21233 ft | 411 kts | 294° |
| 2026-05-03 23:07 | 35.89819 | -81.72404 | 21760 ft | 412 kts | 294° |
| 2026-05-03 23:07 | 35.91336 | -81.75414 | 22252 ft | 415 kts | 294° |
| 2026-05-03 23:08 | 35.92862 | -81.78449 | 22810 ft | 418 kts | 293° |
| 2026-05-03 23:08 | 35.94400 | -81.81505 | 23378 ft | 420 kts | 293° |
| 2026-05-03 23:08 | 35.95937 | -81.84597 | 23871 ft | 424 kts | 292° |
| 2026-05-03 23:08 | 35.97476 | -81.87672 | 24303 ft | 426 kts | 293° |
| 2026-05-03 23:09 | 35.99058 | -81.90828 | 24781 ft | 427 kts | 292° |
| 2026-05-03 23:09 | 36.00622 | -81.93963 | 25280 ft | 431 kts | 292° |
| 2026-05-03 23:09 | 36.02204 | -81.97137 | 25768 ft | 434 kts | 292° |
| 2026-05-03 23:09 | 36.03760 | -82.00266 | 26263 ft | 423 kts | 292° |
| 2026-05-03 23:10 | 36.05310 | -82.03364 | 26739 ft | 427 kts | 292° |
| 2026-05-03 23:10 | 36.06873 | -82.06518 | 27186 ft | 432 kts | 292° |
| 2026-05-03 23:10 | 36.08452 | -82.09704 | 27727 ft | 437 kts | 292° |
| 2026-05-03 23:10 | 36.10042 | -82.12899 | 28244 ft | 437 kts | 292° |
| 2026-05-03 23:11 | 36.11632 | -82.16092 | 28794 ft | 435 kts | 292° |
| 2026-05-03 23:11 | 36.13217 | -82.19284 | 29361 ft | 433 kts | 292° |
| 2026-05-03 23:11 | 36.14786 | -82.22464 | 29912 ft | 431 kts | 292° |
| 2026-05-03 23:11 | 36.16352 | -82.25622 | 30444 ft | 431 kts | 292° |
| 2026-05-03 23:12 | 36.17909 | -82.28777 | 30890 ft | 430 kts | 292° |
| 2026-05-03 23:12 | 36.19463 | -82.31937 | 31406 ft | 429 kts | 292° |
| 2026-05-03 23:12 | 36.21021 | -82.35092 | 31903 ft | 429 kts | 292° |
| 2026-05-03 23:12 | 36.22570 | -82.38243 | 32386 ft | 428 kts | 292° |
| 2026-05-03 23:13 | 36.24118 | -82.41392 | 32908 ft | 426 kts | 292° |
| 2026-05-03 23:13 | 36.25662 | -82.44533 | 33442 ft | 426 kts | 292° |
| 2026-05-03 23:13 | 36.27197 | -82.47667 | 33975 ft | 425 kts | 292° |
| 2026-05-03 23:13 | 36.28737 | -82.50806 | 34453 ft | 425 kts | 292° |
| 2026-05-03 23:14 | 36.30271 | -82.53950 | 34930 ft | 426 kts | 293° |
| 2026-05-03 23:14 | 36.31799 | -82.57090 | 35048 ft | 436 kts | 293° |
| 2026-05-03 23:14 | 36.33369 | -82.60325 | 35390 ft | 440 kts | 293° |
| 2026-05-03 23:14 | 36.34951 | -82.63579 | 35746 ft | 443 kts | 294° |
| 2026-05-03 23:15 | 36.36554 | -82.66872 | 36095 ft | 447 kts | 294° |
| 2026-05-03 23:15 | 36.38171 | -82.70193 | 36470 ft | 450 kts | 294° |
| 2026-05-03 23:15 | 36.39794 | -82.73537 | 36790 ft | 454 kts | 294° |
| 2026-05-03 23:15 | 36.41436 | -82.76912 | 37128 ft | 458 kts | 294° |
| 2026-05-03 23:16 | 36.43084 | -82.80305 | 37496 ft | 461 kts | 294° |
| 2026-05-03 23:16 | 36.44747 | -82.83727 | 37895 ft | 463 kts | 294° |
| 2026-05-03 23:16 | 36.46418 | -82.87169 | 38098 ft | 470 kts | 295° |
| 2026-05-03 23:17 | 36.49847 | -82.94259 | 38104 ft | 483 kts | 295° |
| 2026-05-03 23:17 | 36.53288 | -83.01352 | 38088 ft | 474 kts | 295° |
| 2026-05-03 23:18 | 36.56683 | -83.08357 | 38086 ft | 473 kts | 295° |
| 2026-05-03 23:18 | 36.60070 | -83.15382 | 37550 ft | 480 kts | 295° |
| 2026-05-03 23:18 | 36.61781 | -83.18940 | 37088 ft | 478 kts | 295° |
| 2026-05-03 23:19 | 36.63484 | -83.22482 | 36562 ft | 476 kts | 295° |
| 2026-05-03 23:19 | 36.65174 | -83.25990 | 35952 ft | 465 kts | 295° |
| 2026-05-03 23:19 | 36.66815 | -83.29391 | 35341 ft | 453 kts | 295° |
| 2026-05-03 23:19 | 36.68423 | -83.32725 | 34760 ft | 445 kts | 295° |
| 2026-05-03 23:20 | 36.70007 | -83.36030 | 34186 ft | 443 kts | 295° |
| 2026-05-03 23:20 | 36.71585 | -83.39333 | 33556 ft | 444 kts | 295° |
| 2026-05-03 23:20 | 36.73169 | -83.42663 | 32912 ft | 448 kts | 294° |
| 2026-05-03 23:20 | 36.74772 | -83.46037 | 32271 ft | 454 kts | 295° |
| 2026-05-03 23:21 | 36.76366 | -83.49395 | 31671 ft | 456 kts | 295° |
| 2026-05-03 23:21 | 36.78006 | -83.52848 | 31083 ft | 457 kts | 295° |
| 2026-05-03 23:21 | 36.79621 | -83.56254 | 30475 ft | 458 kts | 295° |
| 2026-05-03 23:21 | 36.81231 | -83.59660 | 29831 ft | 461 kts | 295° |
| 2026-05-03 23:22 | 36.84498 | -83.66571 | 28462 ft | 465 kts | 296° |
| 2026-05-03 23:22 | 36.86154 | -83.70070 | 27781 ft | 469 kts | 297° |
| 2026-05-03 23:22 | 36.87812 | -83.73580 | 27115 ft | 466 kts | 297° |
| 2026-05-03 23:23 | 36.88886 | -83.75854 | 26680 ft | 451 kts | 297° |
| 2026-05-03 23:23 | 36.90448 | -83.79153 | 26026 ft | 433 kts | 297° |
| 2026-05-03 23:23 | 36.91963 | -83.82354 | 25493 ft | 424 kts | 297° |
| 2026-05-03 23:23 | 36.93457 | -83.85521 | 25007 ft | 423 kts | 297° |
| 2026-05-03 23:24 | 36.94956 | -83.88712 | 24536 ft | 427 kts | 298° |
| 2026-05-03 23:24 | 36.96465 | -83.91925 | 24072 ft | 431 kts | 298° |
| 2026-05-03 23:24 | 36.97988 | -83.95177 | 23606 ft | 434 kts | 298° |
| 2026-05-03 23:24 | 36.99518 | -83.98435 | 23028 ft | 434 kts | 298° |
| 2026-05-03 23:25 | 37.01045 | -84.01693 | 22502 ft | 433 kts | 298° |
| 2026-05-03 23:25 | 37.02537 | -84.04859 | 21948 ft | 412 kts | 299° |
| 2026-05-03 23:25 | 37.03969 | -84.07907 | 21412 ft | 401 kts | 299° |
| 2026-05-03 23:25 | 37.05376 | -84.10911 | 20879 ft | 399 kts | 299° |
| 2026-05-03 23:26 | 37.06785 | -84.13915 | 20372 ft | 401 kts | 299° |
| 2026-05-03 23:26 | 37.08175 | -84.16897 | 19883 ft | 402 kts | 298° |
| 2026-05-03 23:26 | 37.09505 | -84.19964 | 19399 ft | 392 kts | 296° |
| 2026-05-03 23:26 | 37.10728 | -84.22934 | 18900 ft | 374 kts | 296° |
| 2026-05-03 23:27 | 37.11882 | -84.25779 | 18412 ft | 360 kts | 296° |
| 2026-05-03 23:27 | 37.12993 | -84.28557 | 17871 ft | 353 kts | 296° |
| 2026-05-03 23:27 | 37.14089 | -84.31302 | 17320 ft | 352 kts | 296° |
| 2026-05-03 23:27 | 37.15180 | -84.34049 | 16804 ft | 353 kts | 296° |
| 2026-05-03 23:28 | 37.16278 | -84.36808 | 16292 ft | 350 kts | 296° |
| 2026-05-03 23:28 | 37.17344 | -84.39499 | 15771 ft | 341 kts | 295° |
| 2026-05-03 23:28 | 37.18397 | -84.42156 | 15268 ft | 338 kts | 295° |
| 2026-05-03 23:28 | 37.19430 | -84.44746 | 15023 ft | 332 kts | 295° |
| 2026-05-03 23:29 | 37.20459 | -84.47334 | 15046 ft | 333 kts | 296° |
| 2026-05-03 23:29 | 37.21502 | -84.49962 | 15047 ft | 337 kts | 295° |
| 2026-05-03 23:29 | 37.22544 | -84.52603 | 15055 ft | 338 kts | 295° |
| 2026-05-03 23:29 | 37.23592 | -84.55238 | 15045 ft | 337 kts | 295° |
| 2026-05-03 23:30 | 37.24635 | -84.57873 | 15051 ft | 337 kts | 295° |
| 2026-05-03 23:30 | 37.25683 | -84.60509 | 15049 ft | 337 kts | 295° |
| 2026-05-03 23:30 | 37.26709 | -84.63110 | 15048 ft | 322 kts | 295° |
| 2026-05-03 23:30 | 37.27689 | -84.65573 | 15039 ft | 309 kts | 295° |
| 2026-05-03 23:31 | 37.28638 | -84.67977 | 15044 ft | 307 kts | 295° |
| 2026-05-03 23:31 | 37.29578 | -84.70352 | 15053 ft | 308 kts | 295° |
| 2026-05-03 23:31 | 37.30623 | -84.72722 | 14860 ft | 315 kts | 301° |
| 2026-05-03 23:31 | 37.31892 | -84.74977 | 14458 ft | 315 kts | 304° |
| 2026-05-03 23:32 | 37.33224 | -84.77144 | 14072 ft | 313 kts | 307° |
| 2026-05-03 23:32 | 37.34601 | -84.79230 | 13653 ft | 305 kts | 308° |
| 2026-05-03 23:32 | 37.35980 | -84.81234 | 13180 ft | 302 kts | 309° |
| 2026-05-03 23:32 | 37.37388 | -84.83203 | 12699 ft | 305 kts | 310° |
| 2026-05-03 23:33 | 37.38825 | -84.85182 | 12240 ft | 308 kts | 310° |
| 2026-05-03 23:33 | 37.40284 | -84.87150 | 12028 ft | 303 kts | 310° |
| 2026-05-03 23:33 | 37.41726 | -84.89086 | 12050 ft | 305 kts | 311° |
| 2026-05-03 23:33 | 37.43206 | -84.91012 | 12051 ft | 308 kts | 313° |
| 2026-05-03 23:34 | 37.44755 | -84.92881 | 12050 ft | 308 kts | 314° |
| 2026-05-03 23:34 | 37.46339 | -84.94728 | 11835 ft | 315 kts | 315° |
| 2026-05-03 23:34 | 37.47985 | -84.96578 | 11381 ft | 316 kts | 316° |
| 2026-05-03 23:34 | 37.49638 | -84.98404 | 10936 ft | 315 kts | 316° |
| 2026-05-03 23:35 | 37.51290 | -85.00193 | 10498 ft | 308 kts | 316° |
| 2026-05-03 23:35 | 37.52864 | -85.01881 | 10259 ft | 293 kts | 317° |
| 2026-05-03 23:35 | 37.54374 | -85.03498 | 10138 ft | 277 kts | 317° |
| 2026-05-03 23:35 | 37.55821 | -85.04973 | 10084 ft | 259 kts | 322° |
| 2026-05-03 23:36 | 37.57376 | -85.06106 | 10062 ft | 257 kts | 328° |
| 2026-05-03 23:36 | 37.59002 | -85.07101 | 9772 ft | 264 kts | 331° |
| 2026-05-03 23:36 | 37.60694 | -85.07988 | 9359 ft | 261 kts | 334° |
| 2026-05-03 23:36 | 37.62386 | -85.08780 | 8937 ft | 257 kts | 336° |
| 2026-05-03 23:37 | 37.64071 | -85.09506 | 8521 ft | 255 kts | 337° |
| 2026-05-03 23:37 | 37.65756 | -85.10196 | 8125 ft | 255 kts | 338° |
| 2026-05-03 23:37 | 37.67438 | -85.10851 | 8028 ft | 250 kts | 338° |
| 2026-05-03 23:37 | 37.69095 | -85.11489 | 8044 ft | 254 kts | 339° |
| 2026-05-03 23:38 | 37.70796 | -85.12138 | 8052 ft | 256 kts | 339° |
| 2026-05-03 23:38 | 37.72513 | -85.12780 | 8027 ft | 257 kts | 339° |
| 2026-05-03 23:38 | 37.74226 | -85.13413 | 8033 ft | 256 kts | 339° |
| 2026-05-03 23:38 | 37.75937 | -85.14031 | 8035 ft | 256 kts | 339° |
| 2026-05-03 23:39 | 37.77651 | -85.14646 | 8031 ft | 256 kts | 339° |
| 2026-05-03 23:39 | 37.79364 | -85.15259 | 8031 ft | 256 kts | 339° |
| 2026-05-03 23:39 | 37.81076 | -85.15879 | 8013 ft | 256 kts | 339° |
| 2026-05-03 23:39 | 37.82787 | -85.16494 | 8017 ft | 256 kts | 339° |
| 2026-05-03 23:40 | 37.84484 | -85.17103 | 8017 ft | 257 kts | 339° |
| 2026-05-03 23:40 | 37.86222 | -85.17724 | 8014 ft | 256 kts | 339° |
| 2026-05-03 23:40 | 37.87918 | -85.18333 | 8017 ft | 257 kts | 339° |
| 2026-05-03 23:40 | 37.89658 | -85.18960 | 8008 ft | 255 kts | 339° |
| 2026-05-03 23:41 | 37.91340 | -85.19562 | 8026 ft | 255 kts | 339° |
| 2026-05-03 23:41 | 37.93052 | -85.20183 | 8024 ft | 255 kts | 338° |
| 2026-05-03 23:41 | 37.94655 | -85.21074 | 8012 ft | 250 kts | 325° |
| 2026-05-03 23:41 | 37.96134 | -85.22240 | 7934 ft | 253 kts | 322° |
| 2026-05-03 23:42 | 37.97587 | -85.23550 | 7489 ft | 255 kts | 319° |
| 2026-05-03 23:42 | 37.98951 | -85.24940 | 7089 ft | 249 kts | 317° |
| 2026-05-03 23:42 | 38.00254 | -85.26353 | 6688 ft | 245 kts | 315° |
| 2026-05-03 23:42 | 38.01511 | -85.27779 | 6280 ft | 241 kts | 314° |
| 2026-05-03 23:43 | 38.02747 | -85.29226 | 5962 ft | 240 kts | 314° |
| 2026-05-03 23:43 | 38.03971 | -85.30664 | 5999 ft | 240 kts | 314° |
| 2026-05-03 23:43 | 38.05210 | -85.32120 | 6010 ft | 244 kts | 314° |
| 2026-05-03 23:43 | 38.06458 | -85.33585 | 6010 ft | 244 kts | 314° |
| 2026-05-03 23:44 | 38.07710 | -85.35048 | 6003 ft | 244 kts | 314° |
| 2026-05-03 23:44 | 38.08954 | -85.36508 | 6012 ft | 244 kts | 314° |
| 2026-05-03 23:44 | 38.10205 | -85.37963 | 6006 ft | 245 kts | 314° |
| 2026-05-03 23:44 | 38.11446 | -85.39412 | 6009 ft | 245 kts | 314° |
| 2026-05-03 23:45 | 38.12701 | -85.40870 | 6010 ft | 244 kts | 314° |
| 2026-05-03 23:45 | 38.13950 | -85.42330 | 6007 ft | 243 kts | 314° |
| 2026-05-03 23:45 | 38.15203 | -85.43789 | 6002 ft | 245 kts | 314° |
| 2026-05-03 23:45 | 38.16460 | -85.45259 | 6003 ft | 245 kts | 314° |
| 2026-05-03 23:46 | 38.17716 | -85.46730 | 6005 ft | 245 kts | 314° |
| 2026-05-03 23:46 | 38.18965 | -85.48194 | 6005 ft | 243 kts | 314° |
| 2026-05-03 23:46 | 38.20214 | -85.49651 | 6005 ft | 243 kts | 314° |
| 2026-05-03 23:46 | 38.21462 | -85.51115 | 6009 ft | 244 kts | 314° |
| 2026-05-03 23:47 | 38.22713 | -85.52574 | 6005 ft | 244 kts | 314° |
| 2026-05-03 23:47 | 38.23962 | -85.54042 | 6001 ft | 245 kts | 314° |
| 2026-05-03 23:47 | 38.25198 | -85.55491 | 6005 ft | 244 kts | 314° |
| 2026-05-03 23:47 | 38.26437 | -85.56966 | 6004 ft | 243 kts | 312° |
| 2026-05-03 23:48 | 38.27660 | -85.58503 | 5634 ft | 250 kts | 311° |
| 2026-05-03 23:48 | 38.28891 | -85.60065 | 5189 ft | 249 kts | 310° |
| 2026-05-03 23:48 | 38.30116 | -85.61639 | 4751 ft | 252 kts | 310° |
| 2026-05-03 23:48 | 38.31352 | -85.63238 | 4346 ft | 251 kts | 310° |
| 2026-05-03 23:49 | 38.32558 | -85.64782 | 4137 ft | 245 kts | 310° |
| 2026-05-03 23:49 | 38.33752 | -85.66316 | 4050 ft | 241 kts | 310° |
| 2026-05-03 23:49 | 38.34921 | -85.67817 | 4017 ft | 239 kts | 310° |
| 2026-05-03 23:49 | 38.36094 | -85.69331 | 3983 ft | 240 kts | 310° |
| 2026-05-03 23:50 | 38.37274 | -85.70844 | 3976 ft | 241 kts | 310° |
| 2026-05-03 23:50 | 38.38062 | -85.71848 | 3972 ft | 242 kts | 310° |
| 2026-05-03 23:50 | 38.39655 | -85.73890 | 3985 ft | 243 kts | 310° |
| 2026-05-03 23:50 | 38.40831 | -85.75397 | 3972 ft | 242 kts | 310° |
| 2026-05-03 23:51 | 38.42002 | -85.76876 | 3956 ft | 225 kts | 310° |
| 2026-05-03 23:51 | 38.43075 | -85.78232 | 3949 ft | 211 kts | 309° |
| 2026-05-03 23:51 | 38.44117 | -85.79569 | 3960 ft | 214 kts | 309° |
| 2026-05-03 23:51 | 38.45144 | -85.80961 | 3967 ft | 214 kts | 300° |
| 2026-05-03 23:52 | 38.45571 | -85.82673 | 3994 ft | 202 kts | 261° |
| 2026-05-03 23:52 | 38.45012 | -85.84263 | 4008 ft | 199 kts | 224° |
| 2026-05-03 23:52 | 38.43797 | -85.85075 | 3995 ft | 203 kts | 194° |
| 2026-05-03 23:52 | 38.42367 | -85.84885 | 3994 ft | 216 kts | 158° |
| 2026-05-03 23:53 | 38.41235 | -85.83588 | 4023 ft | 227 kts | 129° |
| 2026-05-03 23:53 | 38.40181 | -85.82164 | 3995 ft | 215 kts | 159° |
| 2026-05-03 23:53 | 38.38798 | -85.81497 | 3984 ft | 212 kts | 163° |
| 2026-05-03 23:53 | 38.37430 | -85.80749 | 3965 ft | 215 kts | 161° |
| 2026-05-03 23:54 | 38.36071 | -85.79983 | 3966 ft | 214 kts | 162° |
| 2026-05-03 23:54 | 38.34710 | -85.79255 | 3827 ft | 214 kts | 162° |
| 2026-05-03 23:54 | 38.33403 | -85.78564 | 3497 ft | 200 kts | 162° |
| 2026-05-03 23:54 | 38.32115 | -85.77904 | 3234 ft | 198 kts | 162° |
| 2026-05-03 23:55 | 38.30829 | -85.77277 | 2977 ft | 199 kts | 165° |
| 2026-05-03 23:55 | 38.29502 | -85.76760 | 2756 ft | 198 kts | 169° |
| 2026-05-03 23:55 | 38.28167 | -85.76333 | 2473 ft | 197 kts | 170° |
| 2026-05-03 23:55 | 38.26961 | -85.75944 | 2194 ft | 155 kts | 170° |
| 2026-05-03 23:56 | 38.25932 | -85.75607 | 1911 ft | 153 kts | 170° |
| 2026-05-03 23:56 | 38.24897 | -85.75271 | 1662 ft | 155 kts | 170° |
| 2026-05-03 23:56 | 38.23869 | -85.74922 | 1393 ft | 157 kts | 168° |
| 2026-05-03 23:56 | 38.22836 | -85.74551 | 1306 ft | 150 kts | 168° |
| 2026-05-03 23:57 | 38.21828 | -85.74193 | 1211 ft | 151 kts | 168° |
| 2026-05-03 23:57 | 38.20806 | -85.73836 | 1010 ft | 155 kts | 169° |
| 2026-05-03 23:57 | 38.19765 | -85.73474 | 841 ft | 152 kts | 169° |
| 2026-05-03 23:57 | 38.18745 | -85.73133 | 578 ft | 151 kts | 171° |
| 2026-05-03 23:58 | 38.17777 | -85.72794 | 506 ft | 134 kts | 171° |
| 2026-05-03 23:58 | 38.16910 | -85.72575 | 558 ft | 135 kts | 174° |
| 2026-05-03 23:58 | 38.15931 | -85.72225 | 753 ft | 154 kts | 168° |
| 2026-05-03 23:58 | 38.14914 | -85.71829 | 965 ft | 149 kts | 167° |
| 2026-05-03 23:59 | 38.13934 | -85.71434 | 995 ft | 146 kts | 167° |
| 2026-05-03 23:59 | 38.12979 | -85.70953 | 1234 ft | 154 kts | 149° |
| 2026-05-03 23:59 | 38.12290 | -85.69878 | 1609 ft | 165 kts | 113° |
| 2026-05-03 23:59 | 38.12149 | -85.68383 | 1923 ft | 184 kts | 95° |
| 2026-05-04 00:00 | 38.12166 | -85.66694 | 2254 ft | 196 kts | 92° |
| 2026-05-04 00:00 | 38.12615 | -85.65051 | 2639 ft | 211 kts | 49° |
| 2026-05-04 00:00 | 38.13869 | -85.64093 | 3001 ft | 214 kts | 12° |
| 2026-05-04 00:00 | 38.15333 | -85.63967 | 3307 ft | 209 kts | 340° |
| 2026-05-04 00:01 | 38.16656 | -85.64686 | 3501 ft | 210 kts | 324° |
| 2026-05-04 00:01 | 38.17915 | -85.65576 | 3766 ft | 201 kts | 323° |
| 2026-05-04 00:01 | 38.19123 | -85.66467 | 3857 ft | 202 kts | 323° |
| 2026-05-04 00:01 | 38.20374 | -85.67325 | 3935 ft | 205 kts | 328° |
| 2026-05-04 00:02 | 38.21674 | -85.68016 | 4155 ft | 201 kts | 337° |
| 2026-05-04 00:02 | 38.23028 | -85.68479 | 4299 ft | 201 kts | 339° |
| 2026-05-04 00:02 | 38.24390 | -85.68870 | 4498 ft | 198 kts | 339° |
| 2026-05-04 00:02 | 38.25696 | -85.69305 | 4834 ft | 190 kts | 336° |
| 2026-05-04 00:03 | 38.26963 | -85.69747 | 5097 ft | 189 kts | 337° |
| 2026-05-04 00:03 | 38.28220 | -85.70182 | 5329 ft | 190 kts | 335° |
| 2026-05-04 00:03 | 38.29474 | -85.70700 | 5575 ft | 189 kts | 333° |
| 2026-05-04 00:03 | 38.30717 | -85.71229 | 5789 ft | 189 kts | 333° |
| 2026-05-04 00:04 | 38.31957 | -85.71751 | 5952 ft | 188 kts | 334° |
| 2026-05-04 00:04 | 38.33232 | -85.72185 | 5910 ft | 190 kts | 338° |
| 2026-05-04 00:04 | 38.34559 | -85.72536 | 5760 ft | 198 kts | 341° |
| 2026-05-04 00:04 | 38.35929 | -85.72944 | 5413 ft | 201 kts | 327° |
| 2026-05-04 00:05 | 38.36768 | -85.74142 | 4997 ft | 181 kts | 270° |
| 2026-05-04 00:05 | 38.36393 | -85.75582 | 4561 ft | 168 kts | 225° |
| 2026-05-04 00:05 | 38.35373 | -85.76359 | 4213 ft | 177 kts | 202° |
| 2026-05-04 00:05 | 38.34167 | -85.76747 | 3793 ft | 177 kts | 194° |
| 2026-05-04 00:06 | 38.32973 | -85.76871 | 3397 ft | 169 kts | 186° |
| 2026-05-04 00:06 | 38.31820 | -85.76833 | 3075 ft | 163 kts | 179° |
| 2026-05-04 00:06 | 38.30711 | -85.76685 | 2813 ft | 160 kts | 181° |
| 2026-05-04 00:06 | 38.29585 | -85.76568 | 2709 ft | 166 kts | 178° |
| 2026-05-04 00:07 | 38.28419 | -85.76306 | 2505 ft | 172 kts | 173° |
| 2026-05-04 00:07 | 38.27259 | -85.75997 | 2446 ft | 169 kts | 173° |
| 2026-05-04 00:07 | 38.26200 | -85.75685 | 2166 ft | 141 kts | 170° |
| 2026-05-04 00:07 | 38.25227 | -85.75337 | 1838 ft | 146 kts | 169° |
| 2026-05-04 00:08 | 38.24245 | -85.74988 | 1627 ft | 147 kts | 170° |
| 2026-05-04 00:08 | 38.23250 | -85.74676 | 1426 ft | 148 kts | 169° |
| 2026-05-04 00:08 | 38.22582 | -85.74460 | 1315 ft | 151 kts | 167° |
| 2026-05-04 00:08 | 38.21555 | -85.74090 | 1169 ft | 153 kts | 168° |
| 2026-05-04 00:09 | 38.20514 | -85.73740 | 937 ft | 157 kts | 168° |
| 2026-05-04 00:09 | 38.19469 | -85.73380 | 725 ft | 155 kts | 167° |
| 2026-05-04 00:09 | 38.18443 | -85.73032 | 529 ft | 147 kts | 168° |
| 2026-05-04 00:09 | 38.17565 | -85.72741 | 501 ft | 106 kts | 163° |
| 2026-05-04 00:10 | 38.17199 | -85.72654 | 487 ft | 18 kts | 195° |
| 2026-05-04 00:10 | 38.17172 | -85.72665 | 484 ft | 0 kts | 200° |
| 2026-05-04 00:11 | 38.17171 | -85.72666 | 484 ft | 1 kts | 200° |
| 2026-05-04 00:12 | 38.17140 | -85.72709 | 485 ft | 12 kts | 247° |
| 2026-05-04 00:12 | 38.17159 | -85.72751 | 487 ft | 6 kts | 324° |
| 2026-05-04 00:12 | 38.17196 | -85.72770 | 488 ft | 6 kts | 341° |
| 2026-05-04 00:12 | 38.17241 | -85.72788 | 486 ft | 8 kts | 343° |
| 2026-05-04 00:13 | 38.17298 | -85.72808 | 491 ft | 11 kts | 345° |
| 2026-05-04 00:13 | 38.17398 | -85.72841 | 491 ft | 19 kts | 345° |
| 2026-05-04 00:13 | 38.17523 | -85.72865 | 500 ft | 17 kts | 24° |
| 2026-05-04 00:13 | 38.17535 | -85.72737 | 500 ft | 17 kts | 114° |
| 2026-05-04 00:14 | 38.17513 | -85.72596 | 499 ft | 16 kts | 46° |
| 2026-05-04 00:14 | 38.17592 | -85.72584 | 500 ft | 11 kts | 346° |
| 2026-05-04 00:14 | 38.17667 | -85.72608 | 503 ft | 11 kts | 346° |
| 2026-05-04 00:14 | 38.17737 | -85.72631 | 506 ft | 10 kts | 342° |
| 2026-05-04 00:15 | 38.17808 | -85.72658 | 507 ft | 12 kts | 347° |
| 2026-05-04 00:15 | 38.17896 | -85.72682 | 506 ft | 14 kts | 351° |
| 2026-05-04 00:15 | 38.17943 | -85.72677 | 506 ft | 0 kts | 32° |
| 2026-05-04 00:15 | 38.17951 | -85.72653 | 506 ft | 6 kts | 75° |
| 2026-05-04 00:16 | 38.17945 | -85.72615 | 505 ft | 8 kts | 112° |
| 2026-05-04 00:16 | 38.17932 | -85.72582 | 505 ft | 5 kts | 103° |
| 2026-05-04 00:16 | 38.17934 | -85.72542 | 505 ft | 4 kts | 81° |
| 2026-05-04 00:16 | 38.17935 | -85.72533 | 505 ft | 0 kts | 78° |